weather.gov     
National Weather Service

Terminal Aerodrome Forecast
NWS Homepage
This page is being discontinued on March 12, 2014.
The same data is available at this site. Please update your bookmarks.
Thank you, and we apologize for the inconvenience.
Please send an email to SR-SRH.Webmaster@noaa.gov with any concerns.


Current Version
Previous Version:    01  02  03  04  05  06  07  08  09  10  11  12  13  14  15  16  17  18  19  20  21  22  23  24  25  26  27  28  29  30  
   31  32  33  34  35  36  37  38  39  40  41  42  43  44  45  46  47  48  49  50  51  
[Printable]
261
FTUS41 KOKX 231400 AAA
TAFJFK
TAF AMD
KJFK 231431Z 2315/2418 22010KT P6SM SCT080 BKN100
     FM232000 19010KT P6SM SCT120 BKN200
     FM240400 15011G19KT P6SM BKN008
     FM240600 15017G27KT 2SM RA BR OVC005 WS020/16045KT
     FM240900 17020G32KT 2SM RA BR OVC004 WS020/18060KT
     FM241200 18019G29KT 3SM SHRA BR OVC008 WS020/20050KT
     FM241500 19017G26KT 6SM BR SCT009 BKN020=


U.S. Dept. of Commerce
NOAA National Weather Service
1325 East West Highway
Silver Spring, MD 20910
E-mail: w-nws.webmaster@noaa.gov
Page last modified: May 16, 2007
NATIONAL WEATHER SERVICE: for Safety, for Work, for Fun - FOR LIFE